Time;durP1;ratioP1;P1;durP2;ratioP2;P2;SDS_P1;SDS_P2;PMS_P1;PMS_P2;Temp;Humidity;BMP_temperature;BMP_pressure;BME280_temperature;BME280_humidity;BME280_pressure;Samples;Min_cycle;Max_cycle;Signal;HPM_P1;HPM_P2
2023/01/11 00:02:16;;;;;;;;;;;6.30;99.90;;;;;;5045351;28;1027;-72
2023/01/11 00:04:43;;;;;;;;;;;6.40;99.90;;;;;;5043338;28;1272;-73
2023/01/11 00:07:12;;;;;;;;;;;6.40;99.90;;;;;;5041324;28;949;-74
2023/01/11 00:09:40;;;;;;;;;;;6.30;99.90;;;;;;5040124;28;1097;-73
2023/01/11 00:12:13;;;;;;;;;;;6.30;99.90;;;;;;5044975;28;1027;-74
2023/01/11 00:14:40;;;;;;;;;;;6.40;99.90;;;;;;5045211;28;1943;-74
2023/01/11 00:17:09;;;;;;;;;;;6.40;99.90;;;;;;5042904;28;1433;-74
2023/01/11 00:19:38;;;;;;;;;;;6.40;99.90;;;;;;5045813;28;1525;-74
2023/01/11 00:22:05;;;;;;;;;;;6.50;99.90;;;;;;5044795;28;1072;-74
2023/01/11 00:24:34;;;;;;;;;;;6.50;99.90;;;;;;5043529;28;1512;-74
2023/01/11 00:27:02;;;;;;;;;;;6.60;99.90;;;;;;5044929;28;1306;-74
2023/01/11 00:29:29;;;;;;;;;;;6.60;99.90;;;;;;5045594;28;1172;-74
2023/01/11 00:31:57;;;;;;;;;;;6.60;99.90;;;;;;5043042;28;1252;-74
2023/01/11 00:34:24;;;;;;;;;;;6.60;99.90;;;;;;5047119;28;1919;-74
2023/01/11 00:36:52;;;;;;;;;;;6.70;99.90;;;;;;5042582;28;1306;-74
2023/01/11 00:39:19;;;;;;;;;;;6.70;99.90;;;;;;5047465;28;1107;-74
2023/01/11 00:50:04;;;;;;;;;;;6.70;99.90;;;;;;5045701;28;1058;-74
2023/01/11 00:52:32;;;;;;;;;;;6.70;99.90;;;;;;5045439;28;1500;-74
2023/01/11 00:54:59;;;;;;;;;;;6.80;99.90;;;;;;5039960;28;1910;-74
2023/01/11 00:57:28;;;;;;;;;;;6.70;99.90;;;;;;5047277;28;1500;-74
2023/01/11 00:59:57;;;;;;;;;;;6.70;99.90;;;;;;5047748;28;978;-76
2023/01/11 01:02:24;;;;;;;;;;;6.70;99.90;;;;;;5042892;28;1127;-74
2023/01/11 01:04:52;;;;;;;;;;;6.80;99.90;;;;;;5041686;28;1515;-74
2023/01/11 01:07:20;;;;;;;;;;;6.70;99.90;;;;;;5044781;28;1318;-76
2023/01/11 01:09:47;;;;;;;;;;;6.80;99.90;;;;;;5047093;28;1084;-73
2023/01/11 01:14:24;;;;;;;;;;;6.80;99.90;;;;;;5046168;28;1067;-74
2023/01/11 01:15:03;;;;;;;;;;;6.80;99.90;;;;;;5042552;28;1910;-74
2023/01/11 01:17:31;;;;;;;;;;;6.70;99.90;;;;;;5041875;28;1055;-74
2023/01/11 01:19:59;;;;;;;;;;;6.80;99.90;;;;;;5045685;28;1104;-74
2023/01/11 01:22:26;;;;;;;;;;;6.70;99.90;;;;;;5045324;28;1111;-74
2023/01/11 01:24:54;;;;;;;;;;;6.60;99.90;;;;;;5038516;28;1350;-73
2023/01/11 01:27:21;;;;;;;;;;;6.60;99.90;;;;;;5043880;28;985;-73
2023/01/11 01:29:49;;;;;;;;;;;6.70;99.90;;;;;;5042292;28;1002;-73
2023/01/11 01:32:18;;;;;;;;;;;6.80;99.90;;;;;;5049342;28;1088;-74
2023/01/11 01:34:46;;;;;;;;;;;6.80;99.90;;;;;;5046324;28;1903;-72
2023/01/11 01:37:14;;;;;;;;;;;6.80;99.90;;;;;;5046969;28;774;-74
2023/01/11 01:39:42;;;;;;;;;;;6.80;99.90;;;;;;5038168;28;1069;-73
2023/01/11 01:42:12;;;;;;;;;;;6.80;99.90;;;;;;5049542;28;1043;-73
2023/01/11 01:44:53;;;;;;;;;;;6.90;99.90;;;;;;5039546;28;1696;-72
2023/01/11 01:47:23;;;;;;;;;;;6.90;99.90;;;;;;5042510;28;1061;-73
2023/01/11 01:49:54;;;;;;;;;;;6.90;99.90;;;;;;5040432;28;1055;-75
2023/01/11 01:52:27;;;;;;;;;;;6.90;99.90;;;;;;5046124;28;1184;-74
2023/01/11 01:55:05;;;;;;;;;;;6.80;99.90;;;;;;5051370;28;1914;-73
2023/01/11 01:57:34;;;;;;;;;;;6.80;99.90;;;;;;5044164;28;1132;-73
2023/01/11 02:00:05;;;;;;;;;;;6.80;99.90;;;;;;5040345;28;1093;-73
2023/01/11 02:02:35;;;;;;;;;;;6.90;99.90;;;;;;5044580;28;1386;-73
2023/01/11 02:05:04;;;;;;;;;;;6.90;99.90;;;;;;5041729;28;1273;-73
2023/01/11 02:07:32;;;;;;;;;;;7.00;99.90;;;;;;5044252;28;1097;-72
2023/01/11 02:10:02;;;;;;;;;;;7.00;99.90;;;;;;5037503;28;1254;-73
2023/01/11 02:12:32;;;;;;;;;;;7.00;99.90;;;;;;5045663;28;1168;-74
2023/01/11 02:15:00;;;;;;;;;;;7.00;99.90;;;;;;5044432;28;1914;-74
2023/01/11 02:17:28;;;;;;;;;;;7.00;99.90;;;;;;5043420;28;974;-74
2023/01/11 02:19:58;;;;;;;;;;;7.00;99.90;;;;;;5040295;28;1506;-74
2023/01/11 02:22:44;;;;;;;;;;;7.10;99.90;;;;;;5044859;28;1009;-73
2023/01/11 02:25:25;;;;;;;;;;;7.10;99.90;;;;;;5039658;28;1397;-75
2023/01/11 02:28:03;;;;;;;;;;;7.10;99.90;;;;;;5042666;28;1002;-74
2023/01/11 02:30:33;;;;;;;;;;;7.10;99.90;;;;;;5042239;28;1102;-73
2023/01/11 02:33:08;;;;;;;;;;;7.10;99.90;;;;;;5046551;28;1108;-73
2023/01/11 02:35:41;;;;;;;;;;;7.10;99.90;;;;;;5043914;28;1923;-74
2023/01/11 02:38:12;;;;;;;;;;;7.10;99.90;;;;;;5045540;28;1052;-75
2023/01/11 02:40:47;;;;;;;;;;;7.20;99.90;;;;;;5043557;28;1002;-74
2023/01/11 02:46:08;;;;;;;;;;;7.30;99.90;;;;;;5046880;28;1134;-76
2023/01/11 02:48:39;;;;;;;;;;;7.30;99.90;;;;;;5043548;28;982;-74
2023/01/11 02:51:10;;;;;;;;;;;7.30;99.90;;;;;;5045039;28;1072;-73
2023/01/11 02:53:41;;;;;;;;;;;7.30;99.90;;;;;;5044317;28;1346;-73
2023/01/11 02:56:10;;;;;;;;;;;7.30;99.90;;;;;;5043249;28;1971;-74
2023/01/11 02:58:41;;;;;;;;;;;7.40;99.90;;;;;;5037264;28;1276;-75
2023/01/11 03:01:09;;;;;;;;;;;7.40;99.90;;;;;;5044516;28;1077;-73
2023/01/11 03:03:36;;;;;;;;;;;7.50;99.90;;;;;;5044683;28;1284;-73
2023/01/11 03:06:05;;;;;;;;;;;7.40;99.90;;;;;;5044975;28;1167;-73
2023/01/11 03:08:40;;;;;;;;;;;7.50;99.90;;;;;;5044010;28;1008;-73
2023/01/11 03:11:10;;;;;;;;;;;7.40;99.90;;;;;;5048608;28;1041;-74
2023/01/11 03:13:45;;;;;;;;;;;7.50;99.90;;;;;;5044567;28;1423;-73
2023/01/11 03:16:19;;;;;;;;;;;7.60;99.90;;;;;;5050311;28;1902;-74
2023/01/11 03:18:51;;;;;;;;;;;7.60;99.90;;;;;;5042093;28;1637;-73
2023/01/11 03:21:25;;;;;;;;;;;7.60;99.90;;;;;;5045416;28;981;-74
2023/01/11 03:23:58;;;;;;;;;;;7.60;99.90;;;;;;5044923;28;1443;-74
2023/01/11 03:26:30;;;;;;;;;;;7.70;99.90;;;;;;5046128;28;1105;-73
2023/01/11 03:29:11;;;;;;;;;;;7.80;99.90;;;;;;5047251;28;1093;-73
2023/01/11 03:31:42;;;;;;;;;;;7.70;99.90;;;;;;5048558;28;1044;-74
2023/01/11 03:34:13;;;;;;;;;;;7.70;99.90;;;;;;5047832;28;1504;-73
2023/01/11 03:36:43;;;;;;;;;;;7.80;99.90;;;;;;5048874;28;1993;-74
2023/01/11 03:39:13;;;;;;;;;;;7.80;99.90;;;;;;5045865;28;1022;-74
2023/01/11 03:41:41;;;;;;;;;;;7.80;99.90;;;;;;5043898;28;1617;-74
2023/01/11 03:44:13;;;;;;;;;;;7.80;99.90;;;;;;5045473;28;1380;-74
2023/01/11 03:46:43;;;;;;;;;;;7.90;99.90;;;;;;5043701;28;1010;-75
2023/01/11 03:49:13;;;;;;;;;;;7.90;99.90;;;;;;5043588;28;1049;-75
2023/01/11 03:51:42;;;;;;;;;;;8.00;99.90;;;;;;5044001;28;1026;-74
2023/01/11 03:54:12;;;;;;;;;;;7.90;99.90;;;;;;5046602;28;1485;-74
2023/01/11 03:56:43;;;;;;;;;;;8.00;99.90;;;;;;5047157;28;1910;-74
2023/01/11 03:59:16;;;;;;;;;;;8.00;99.90;;;;;;5040751;28;1108;-75
2023/01/11 04:01:44;;;;;;;;;;;8.00;99.90;;;;;;5042749;28;1052;-74
2023/01/11 04:04:11;;;;;;;;;;;8.00;99.90;;;;;;5039507;28;1359;-75
2023/01/11 04:06:39;;;;;;;;;;;8.00;99.90;;;;;;5046378;28;1424;-75
2023/01/11 04:09:07;;;;;;;;;;;8.00;99.90;;;;;;5047778;28;1547;-74
2023/01/11 04:11:34;;;;;;;;;;;8.00;99.90;;;;;;5044699;28;1666;-75
2023/01/11 04:14:02;;;;;;;;;;;8.10;99.90;;;;;;5046841;28;1353;-75
2023/01/11 04:16:35;;;;;;;;;;;8.00;99.90;;;;;;5042562;28;1992;-74
2023/01/11 04:19:02;;;;;;;;;;;8.00;99.90;;;;;;5049976;28;1068;-74
2023/01/11 04:21:30;;;;;;;;;;;8.00;99.90;;;;;;5045130;28;993;-74
2023/01/11 04:23:58;;;;;;;;;;;8.10;99.90;;;;;;5043307;28;1344;-74
2023/01/11 04:26:25;;;;;;;;;;;8.10;99.90;;;;;;5050905;28;1016;-73
2023/01/11 04:28:53;;;;;;;;;;;8.10;99.90;;;;;;5044580;28;1577;-73
2023/01/11 04:31:21;;;;;;;;;;;8.10;99.90;;;;;;5042312;28;996;-73
2023/01/11 04:33:50;;;;;;;;;;;8.10;99.90;;;;;;5044088;28;1285;-73
2023/01/11 04:36:17;;;;;;;;;;;8.10;99.90;;;;;;5041583;28;1987;-74
2023/01/11 04:38:45;;;;;;;;;;;8.20;99.90;;;;;;5042166;28;989;-74
2023/01/11 04:44:00;;;;;;;;;;;8.20;99.90;;;;;;5042908;28;1346;-73
2023/01/11 04:46:28;;;;;;;;;;;8.30;99.90;;;;;;5044429;28;1179;-73
2023/01/11 04:48:57;;;;;;;;;;;8.30;99.90;;;;;;5048537;28;1028;-73
2023/01/11 04:51:24;;;;;;;;;;;8.30;99.90;;;;;;5042247;28;1131;-74
2023/01/11 04:53:53;;;;;;;;;;;8.30;99.90;;;;;;5042339;28;1267;-74
2023/01/11 04:56:20;;;;;;;;;;;8.30;99.90;;;;;;5044172;28;1910;-74
2023/01/11 04:58:48;;;;;;;;;;;8.40;99.90;;;;;;5043758;28;1356;-73
2023/01/11 05:01:17;;;;;;;;;;;8.30;99.90;;;;;;5047940;28;1082;-74
2023/01/11 05:03:45;;;;;;;;;;;8.40;99.90;;;;;;5042676;28;1389;-73
2023/01/11 05:06:14;;;;;;;;;;;8.40;99.90;;;;;;5045859;28;1040;-74
2023/01/11 05:08:44;;;;;;;;;;;8.40;99.90;;;;;;5049381;28;1068;-76
2023/01/11 05:11:12;;;;;;;;;;;8.50;99.90;;;;;;5043440;28;1076;-75
2023/01/11 05:13:43;;;;;;;;;;;8.60;99.90;;;;;;5042805;28;1947;-73
2023/01/11 05:16:11;;;;;;;;;;;8.50;99.90;;;;;;5040484;28;1942;-74
2023/01/11 05:18:39;;;;;;;;;;;8.50;99.90;;;;;;5040400;28;1989;-75
2023/01/11 05:21:06;;;;;;;;;;;8.50;99.90;;;;;;5044724;28;1092;-76
2023/01/11 05:23:36;;;;;;;;;;;8.60;99.90;;;;;;5043032;28;1291;-75
2023/01/11 05:26:04;;;;;;;;;;;8.70;99.90;;;;;;5041725;28;1116;-76
2023/01/11 05:28:32;;;;;;;;;;;8.70;99.90;;;;;;5045022;28;1064;-76
2023/01/11 05:31:01;;;;;;;;;;;8.70;99.90;;;;;;5046541;28;1120;-76
2023/01/11 05:33:29;;;;;;;;;;;8.70;99.90;;;;;;5040907;28;2092;-76
2023/01/11 05:35:59;;;;;;;;;;;8.80;99.90;;;;;;5041692;28;1188;-76
2023/01/11 05:38:32;;;;;;;;;;;8.80;99.90;;;;;;5045207;28;1914;-75
2023/01/11 05:41:02;;;;;;;;;;;8.90;99.90;;;;;;5045486;28;1100;-74
2023/01/11 05:45:27;;;;;;;;;;;8.90;99.90;;;;;;5048575;28;1535;-74
2023/01/11 05:46:21;;;;;;;;;;;8.90;99.90;;;;;;5041303;28;1961;-75
2023/01/11 05:48:49;;;;;;;;;;;8.90;99.90;;;;;;5043037;28;1032;-76
2023/01/11 05:51:16;;;;;;;;;;;8.80;99.90;;;;;;5042765;28;1076;-75
2023/01/11 05:53:44;;;;;;;;;;;8.90;99.90;;;;;;5042553;28;1374;-75
2023/01/11 05:56:13;;;;;;;;;;;8.90;99.90;;;;;;5041062;28;1040;-75
2023/01/11 05:58:41;;;;;;;;;;;9.00;99.90;;;;;;5046171;28;1910;-76
2023/01/11 06:01:12;;;;;;;;;;;9.00;99.90;;;;;;5045260;28;1044;-74
2023/01/11 06:03:39;;;;;;;;;;;9.00;99.90;;;;;;5043976;28;1263;-75
2023/01/11 06:06:07;;;;;;;;;;;9.00;99.90;;;;;;5043281;28;1108;-73
2023/01/11 06:08:35;;;;;;;;;;;9.00;99.90;;;;;;5040647;28;1803;-74
2023/01/11 06:11:03;;;;;;;;;;;9.00;99.90;;;;;;5030840;28;1739;-75
2023/01/11 06:13:32;;;;;;;;;;;9.00;99.90;;;;;;5036229;28;1990;-75
2023/01/11 06:16:00;;;;;;;;;;;9.10;99.90;;;;;;5042626;28;1148;-75
2023/01/11 06:18:31;;;;;;;;;;;9.20;99.90;;;;;;5047978;28;1890;-75
2023/01/11 06:20:59;;;;;;;;;;;9.20;99.90;;;;;;5045088;28;1027;-74
2023/01/11 06:23:32;;;;;;;;;;;9.20;99.90;;;;;;5045494;28;1056;-76
2023/01/11 06:26:01;;;;;;;;;;;9.20;99.90;;;;;;5048706;28;1760;-75
2023/01/11 06:28:29;;;;;;;;;;;9.20;99.90;;;;;;5047301;28;1252;-74
2023/01/11 06:30:58;;;;;;;;;;;9.30;99.90;;;;;;5047999;28;1092;-74
2023/01/11 06:33:27;;;;;;;;;;;9.20;99.90;;;;;;5043829;28;994;-75
2023/01/11 06:35:55;;;;;;;;;;;9.20;99.90;;;;;;5043552;28;1263;-76
2023/01/11 06:38:23;;;;;;;;;;;9.20;99.90;;;;;;5048683;28;1906;-73
2023/01/11 06:40:52;;;;;;;;;;;9.20;99.90;;;;;;5047199;28;1035;-74
2023/01/11 06:43:21;;;;;;;;;;;9.20;99.90;;;;;;5043933;28;1887;-74
2023/01/11 06:45:49;;;;;;;;;;;9.10;99.90;;;;;;5047961;28;1914;-74
2023/01/11 06:48:18;;;;;;;;;;;9.10;99.90;;;;;;5047622;28;1011;-74
2023/01/11 06:50:47;;;;;;;;;;;9.20;99.90;;;;;;5040322;28;1276;-74
2023/01/11 06:53:14;;;;;;;;;;;9.20;99.90;;;;;;5049574;28;1089;-74
2023/01/11 06:55:42;;;;;;;;;;;9.30;99.90;;;;;;5044476;28;1322;-73
2023/01/11 06:58:11;;;;;;;;;;;9.30;99.90;;;;;;5048095;28;1898;-73
2023/01/11 07:00:39;;;;;;;;;;;9.30;99.90;;;;;;5045787;28;965;-74
2023/01/11 07:03:06;;;;;;;;;;;9.30;99.90;;;;;;5045519;28;1188;-71
2023/01/11 07:05:35;;;;;;;;;;;9.30;99.90;;;;;;5048495;28;1437;-73
2023/01/11 07:08:03;;;;;;;;;;;9.30;99.90;;;;;;5045685;28;1028;-73
2023/01/11 07:10:31;;;;;;;;;;;9.40;99.90;;;;;;5049135;28;1206;-73
2023/01/11 07:12:58;;;;;;;;;;;9.50;99.90;;;;;;5046147;28;1507;-74
2023/01/11 07:15:26;;;;;;;;;;;9.50;99.90;;;;;;5043645;28;1516;-72
2023/01/11 07:17:54;;;;;;;;;;;9.50;99.90;;;;;;5043722;28;1993;-71
2023/01/11 07:20:22;;;;;;;;;;;9.40;99.90;;;;;;5047690;28;1104;-73
2023/01/11 07:22:51;;;;;;;;;;;9.40;99.90;;;;;;5045870;28;1016;-72
2023/01/11 07:25:18;;;;;;;;;;;9.50;99.90;;;;;;5042988;28;1352;-73
2023/01/11 07:27:46;;;;;;;;;;;9.50;99.90;;;;;;5044648;28;1066;-73
2023/01/11 07:30:14;;;;;;;;;;;9.50;99.90;;;;;;5045786;28;1126;-72
2023/01/11 07:32:41;;;;;;;;;;;9.40;99.90;;;;;;5046915;28;1049;-74
2023/01/11 07:35:09;;;;;;;;;;;9.50;99.90;;;;;;5043550;28;1295;-72
2023/01/11 07:37:37;;;;;;;;;;;9.50;99.90;;;;;;5049417;28;1077;-72
2023/01/11 07:40:06;;;;;;;;;;;9.50;99.90;;;;;;5044046;28;1034;-73
2023/01/11 07:45:19;;;;;;;;;;;9.50;99.90;;;;;;5046044;28;1332;-72
2023/01/11 07:47:49;;;;;;;;;;;9.60;99.90;;;;;;5042061;28;1740;-73
2023/01/11 07:50:17;;;;;;;;;;;9.60;99.90;;;;;;5042791;28;1636;-73
2023/01/11 07:52:46;;;;;;;;;;;9.80;99.90;;;;;;5048486;28;1711;-73
2023/01/11 07:55:15;;;;;;;;;;;9.70;99.90;;;;;;5047094;28;1671;-73
2023/01/11 07:57:44;;;;;;;;;;;9.60;99.90;;;;;;5046942;28;1694;-72
2023/01/11 08:00:13;;;;;;;;;;;9.70;99.90;;;;;;5047040;28;1914;-72
2023/01/11 08:02:40;;;;;;;;;;;9.70;99.90;;;;;;5045527;28;1504;-73
2023/01/11 08:05:09;;;;;;;;;;;9.80;99.90;;;;;;5042769;28;1652;-73
2023/01/11 08:07:36;;;;;;;;;;;9.80;99.90;;;;;;5043604;28;1085;-73
2023/01/11 08:10:06;;;;;;;;;;;9.70;99.90;;;;;;5044586;28;1030;-75
2023/01/11 08:15:21;;;;;;;;;;;9.70;99.90;;;;;;5044975;28;1430;-72
2023/01/11 08:17:50;;;;;;;;;;;9.80;99.90;;;;;;5045856;28;1742;-72
2023/01/11 08:20:19;;;;;;;;;;;9.90;99.90;;;;;;5044866;28;1902;-72
2023/01/11 08:22:49;;;;;;;;;;;9.80;99.90;;;;;;5044078;28;1028;-72
2023/01/11 08:25:17;;;;;;;;;;;10.00;99.90;;;;;;5046565;28;1310;-72
2023/01/11 08:27:46;;;;;;;;;;;9.90;99.90;;;;;;5041365;28;1256;-73
2023/01/11 08:30:13;;;;;;;;;;;9.80;99.90;;;;;;5045024;28;2005;-73
2023/01/11 08:32:41;;;;;;;;;;;9.90;99.90;;;;;;5050407;28;1088;-73
2023/01/11 08:35:09;;;;;;;;;;;9.90;99.90;;;;;;5046238;28;1642;-74
2023/01/11 08:37:38;;;;;;;;;;;9.90;99.90;;;;;;5045358;28;1088;-74
2023/01/11 08:40:06;;;;;;;;;;;9.90;99.90;;;;;;5042001;28;1966;-73
2023/01/11 08:42:35;;;;;;;;;;;9.90;99.90;;;;;;5041323;28;1970;-74
2023/01/11 08:45:04;;;;;;;;;;;10.00;99.90;;;;;;5043914;28;1486;-74
2023/01/11 08:47:32;;;;;;;;;;;10.00;99.90;;;;;;5046709;28;1111;-74
2023/01/11 08:50:00;;;;;;;;;;;10.10;99.90;;;;;;5043582;28;1077;-73
2023/01/11 08:52:28;;;;;;;;;;;10.10;99.90;;;;;;5038638;28;1998;-74
2023/01/11 08:54:56;;;;;;;;;;;10.10;99.90;;;;;;5039109;28;1747;-74
2023/01/11 08:57:23;;;;;;;;;;;10.10;99.90;;;;;;5044026;28;1046;-74
2023/01/11 08:59:51;;;;;;;;;;;10.20;99.90;;;;;;5045753;28;2003;-73
2023/01/11 09:02:20;;;;;;;;;;;10.30;99.90;;;;;;5042142;28;938;-73
2023/01/11 09:04:47;;;;;;;;;;;10.30;99.90;;;;;;5040075;28;1303;-72
2023/01/11 09:07:19;;;;;;;;;;;10.20;99.90;;;;;;5043941;28;1015;-73
2023/01/11 09:09:47;;;;;;;;;;;10.20;99.90;;;;;;5044300;28;1030;-72
2023/01/11 09:12:26;;;;;;;;;;;10.20;99.90;;;;;;5042107;28;1501;-73
2023/01/11 09:14:54;;;;;;;;;;;10.20;99.90;;;;;;5045824;28;1355;-74
2023/01/11 09:17:23;;;;;;;;;;;10.20;99.90;;;;;;5039811;28;1008;-74
2023/01/11 09:19:51;;;;;;;;;;;10.20;99.90;;;;;;5036093;28;1926;-73
2023/01/11 09:22:20;;;;;;;;;;;10.20;99.90;;;;;;5040910;28;1018;-73
2023/01/11 09:24:48;;;;;;;;;;;10.10;99.90;;;;;;5042303;28;1342;-73
2023/01/11 09:27:16;;;;;;;;;;;10.10;99.90;;;;;;5046900;28;1060;-73
2023/01/11 09:29:45;;;;;;;;;;;10.20;99.90;;;;;;5039532;28;1783;-73
2023/01/11 09:32:13;;;;;;;;;;;10.20;99.90;;;;;;5042414;28;1118;-74
2023/01/11 09:34:45;;;;;;;;;;;10.20;99.90;;;;;;5039875;28;1243;-73
2023/01/11 09:37:13;;;;;;;;;;;10.20;99.90;;;;;;5039121;28;1053;-74
2023/01/11 09:39:42;;;;;;;;;;;10.20;99.90;;;;;;5048418;28;1902;-74
2023/01/11 09:42:20;;;;;;;;;;;10.30;99.90;;;;;;5046445;28;1057;-73
2023/01/11 09:44:49;;;;;;;;;;;10.30;99.90;;;;;;5043099;28;1366;-73
2023/01/11 09:47:21;;;;;;;;;;;10.30;99.90;;;;;;5048141;28;1053;-73
2023/01/11 09:49:54;;;;;;;;;;;10.30;99.90;;;;;;5044844;28;1124;-73
2023/01/11 09:52:27;;;;;;;;;;;10.30;99.90;;;;;;5038773;28;1646;-73
2023/01/11 09:54:56;;;;;;;;;;;10.20;99.90;;;;;;5042447;28;1350;-74
2023/01/11 09:57:29;;;;;;;;;;;10.20;99.90;;;;;;5046219;28;1137;-74
2023/01/11 10:00:03;;;;;;;;;;;10.20;99.90;;;;;;5042719;28;1976;-72
2023/01/11 10:02:37;;;;;;;;;;;10.20;99.90;;;;;;5047434;28;1643;-75
2023/01/11 10:05:22;;;;;;;;;;;10.20;99.90;;;;;;5042089;28;1438;-74
2023/01/11 10:08:01;;;;;;;;;;;10.30;99.90;;;;;;5042624;28;1128;-74
2023/01/11 10:10:53;;;;;;;;;;;10.30;99.90;;;;;;5036809;28;1678;-75
2023/01/11 10:13:46;;;;;;;;;;;10.30;99.90;;;;;;5041837;28;1533;-73
2023/01/11 10:16:31;;;;;;;;;;;10.40;99.90;;;;;;5040493;28;1745;-76
2023/01/11 10:19:22;;;;;;;;;;;10.30;99.90;;;;;;5045897;28;2005;-76
2023/01/11 10:22:09;;;;;;;;;;;10.40;99.90;;;;;;5024464;28;2017;-73
2023/01/11 10:24:40;;;;;;;;;;;10.40;99.90;;;;;;5039217;28;1922;-73
2023/01/11 10:27:14;;;;;;;;;;;10.30;99.90;;;;;;5036492;28;1906;-72
2023/01/11 10:29:57;;;;;;;;;;;10.40;99.90;;;;;;5042838;28;2060;-72
2023/01/11 10:32:51;;;;;;;;;;;10.50;99.90;;;;;;5033466;28;1993;-73
2023/01/11 10:35:44;;;;;;;;;;;10.50;99.90;;;;;;5038760;28;2037;-73
2023/01/11 10:38:39;;;;;;;;;;;10.50;99.90;;;;;;5039420;28;1017;-73
2023/01/11 10:41:18;;;;;;;;;;;10.50;99.90;;;;;;5041025;28;1981;-74
2023/01/11 10:43:49;;;;;;;;;;;10.50;99.90;;;;;;5039898;28;1524;-74
2023/01/11 10:46:19;;;;;;;;;;;10.30;99.90;;;;;;5045691;28;1063;-73
2023/01/11 10:48:46;;;;;;;;;;;10.40;99.90;;;;;;5043057;28;976;-72
2023/01/11 10:51:23;;;;;;;;;;;10.40;99.90;;;;;;5042481;28;2140;-73
2023/01/11 10:53:56;;;;;;;;;;;10.30;99.90;;;;;;5039866;28;1269;-71
2023/01/11 10:56:31;;;;;;;;;;;10.30;99.90;;;;;;5041526;28;1069;-74
2023/01/11 10:59:06;;;;;;;;;;;10.30;99.90;;;;;;5044213;28;1067;-76
2023/01/11 11:01:45;;;;;;;;;;;10.40;99.90;;;;;;5039519;28;1914;-75
2023/01/11 11:04:21;;;;;;;;;;;10.50;99.90;;;;;;5041086;28;1548;-74
2023/01/11 11:06:54;;;;;;;;;;;10.40;99.90;;;;;;5042451;28;1151;-74
2023/01/11 11:09:25;;;;;;;;;;;10.40;99.90;;;;;;5041018;28;1097;-73
2023/01/11 11:11:58;;;;;;;;;;;10.40;99.90;;;;;;5044665;28;1942;-73
2023/01/11 11:14:30;;;;;;;;;;;10.50;99.90;;;;;;5046005;28;1318;-74
2023/01/11 11:17:02;;;;;;;;;;;10.40;99.90;;;;;;5043244;28;1155;-74
2023/01/11 11:19:31;;;;;;;;;;;10.50;99.90;;;;;;5044392;28;1068;-74
2023/01/11 11:21:59;;;;;;;;;;;10.60;99.90;;;;;;5045808;28;1902;-74
2023/01/11 11:24:32;;;;;;;;;;;10.50;99.90;;;;;;5045699;28;1333;-75
2023/01/11 11:27:03;;;;;;;;;;;10.60;99.90;;;;;;5044434;28;1271;-74
2023/01/11 11:29:31;;;;;;;;;;;10.50;99.90;;;;;;5045513;28;1171;-73
2023/01/11 11:31:59;;;;;;;;;;;10.50;99.90;;;;;;5046301;28;1198;-73
2023/01/11 11:34:28;;;;;;;;;;;10.60;99.90;;;;;;5046122;28;1317;-74
2023/01/11 11:36:57;;;;;;;;;;;10.40;99.90;;;;;;5044307;28;1659;-73
2023/01/11 11:39:27;;;;;;;;;;;10.50;99.90;;;;;;5043179;28;1941;-75
2023/01/11 11:41:56;;;;;;;;;;;10.40;99.90;;;;;;5041901;28;2041;-74
2023/01/11 11:44:26;;;;;;;;;;;10.50;99.90;;;;;;5042962;28;1334;-73
2023/01/11 11:46:57;;;;;;;;;;;10.50;99.90;;;;;;5040559;28;1036;-73
2023/01/11 11:49:25;;;;;;;;;;;10.50;99.90;;;;;;5043201;28;1662;-74
2023/01/11 11:51:53;;;;;;;;;;;10.50;99.90;;;;;;5043270;28;2004;-75
2023/01/11 11:54:23;;;;;;;;;;;10.50;99.90;;;;;;5042636;28;1279;-73
2023/01/11 11:56:51;;;;;;;;;;;10.40;99.90;;;;;;5043461;28;1183;-73
2023/01/11 11:59:20;;;;;;;;;;;10.40;99.90;;;;;;5043340;28;1103;-74
2023/01/11 12:01:55;;;;;;;;;;;10.30;99.90;;;;;;5049221;28;1917;-73
2023/01/11 12:04:30;;;;;;;;;;;10.40;99.90;;;;;;5046944;28;1224;-75
2023/01/11 12:07:05;;;;;;;;;;;10.40;99.90;;;;;;5045703;28;1017;-74
2023/01/11 12:09:33;;;;;;;;;;;10.40;99.90;;;;;;5042491;28;1538;-73
2023/01/11 12:12:01;;;;;;;;;;;10.40;99.90;;;;;;5044288;28;2009;-74
2023/01/11 12:14:30;;;;;;;;;;;10.40;99.90;;;;;;5048111;28;1244;-73
2023/01/11 12:16:59;;;;;;;;;;;10.40;99.90;;;;;;5044717;28;1072;-73
2023/01/11 12:19:28;;;;;;;;;;;10.40;99.90;;;;;;5045523;28;1062;-73
2023/01/11 12:22:09;;;;;;;;;;;10.30;99.90;;;;;;5043874;28;1993;-74
2023/01/11 12:24:36;;;;;;;;;;;10.30;99.90;;;;;;5046056;28;1322;-73
2023/01/11 12:27:08;;;;;;;;;;;10.30;99.90;;;;;;5045456;28;1018;-74
2023/01/11 12:29:45;;;;;;;;;;;10.30;99.90;;;;;;5045477;28;1055;-74
2023/01/11 12:32:19;;;;;;;;;;;10.30;99.90;;;;;;5043956;28;1062;-74
2023/01/11 12:35:00;;;;;;;;;;;10.30;99.90;;;;;;5040819;28;1336;-72
2023/01/11 12:37:33;;;;;;;;;;;10.30;99.90;;;;;;5042751;28;1073;-72
2023/01/11 12:40:09;;;;;;;;;;;10.30;99.90;;;;;;5045775;28;1755;-72
2023/01/11 12:43:01;;;;;;;;;;;10.30;99.90;;;;;;5041444;28;1914;-72
2023/01/11 12:45:33;;;;;;;;;;;10.40;99.90;;;;;;5031913;28;1528;-76
2023/01/11 12:48:14;;;;;;;;;;;10.30;99.90;;;;;;5046457;28;1585;-77
2023/01/11 12:50:48;;;;;;;;;;;10.30;99.90;;;;;;5044847;28;1016;-77
2023/01/11 12:53:22;;;;;;;;;;;10.30;99.90;;;;;;5045129;28;1034;-78
2023/01/11 12:55:55;;;;;;;;;;;10.50;99.90;;;;;;5046073;28;1861;-79
2023/01/11 12:58:28;;;;;;;;;;;10.40;99.90;;;;;;5052042;28;1324;-79
2023/01/11 13:01:05;;;;;;;;;;;10.30;99.90;;;;;;5042248;28;1886;-78
2023/01/11 13:03:44;;;;;;;;;;;10.40;99.90;;;;;;5044815;28;1139;-78
2023/01/11 13:06:14;;;;;;;;;;;10.60;99.90;;;;;;5043980;28;1093;-78
2023/01/11 13:08:47;;;;;;;;;;;10.50;99.90;;;;;;5043913;28;1269;-77
2023/01/11 13:11:33;;;;;;;;;;;10.60;99.90;;;;;;5043889;28;1033;-77
2023/01/11 13:14:07;;;;;;;;;;;10.40;99.90;;;;;;5047191;28;1263;-76
2023/01/11 13:16:38;;;;;;;;;;;10.40;99.90;;;;;;5040338;28;1275;-78
2023/01/11 13:19:10;;;;;;;;;;;10.30;99.90;;;;;;5041952;28;1590;-76
2023/01/11 13:21:43;;;;;;;;;;;10.30;99.90;;;;;;5035661;28;1898;-76
2023/01/11 13:24:13;;;;;;;;;;;10.60;99.90;;;;;;5040385;28;1675;-77
2023/01/11 13:26:42;;;;;;;;;;;10.40;99.90;;;;;;5038904;28;1564;-76
2023/01/11 13:29:13;;;;;;;;;;;10.40;99.90;;;;;;5039510;28;1683;-75
2023/01/11 13:31:42;;;;;;;;;;;10.40;99.90;;;;;;5044081;28;1595;-74
2023/01/11 13:34:15;;;;;;;;;;;10.30;99.90;;;;;;5042198;28;1820;-75
2023/01/11 13:36:44;;;;;;;;;;;10.40;99.90;;;;;;5045144;28;1132;-76
2023/01/11 13:39:15;;;;;;;;;;;10.30;99.90;;;;;;5040503;28;1350;-76
2023/01/11 13:41:45;;;;;;;;;;;10.30;99.90;;;;;;5041828;28;1970;-76
2023/01/11 13:44:15;;;;;;;;;;;10.30;99.90;;;;;;5038771;28;1279;-76
2023/01/11 13:46:48;;;;;;;;;;;10.20;99.90;;;;;;5041736;28;1136;-75
2023/01/11 13:49:20;;;;;;;;;;;10.10;99.90;;;;;;5044194;28;1017;-77
2023/01/11 13:51:51;;;;;;;;;;;10.10;99.90;;;;;;5046232;28;1101;-76
2023/01/11 13:54:23;;;;;;;;;;;10.10;99.90;;;;;;5043339;28;1370;-76
2023/01/11 13:56:53;;;;;;;;;;;10.00;99.90;;;;;;5043182;28;1044;-75
2023/01/11 13:59:25;;;;;;;;;;;10.00;99.90;;;;;;5038611;28;1109;-75
2023/01/11 14:01:55;;;;;;;;;;;10.00;99.90;;;;;;5041356;28;1902;-76
2023/01/11 14:04:27;;;;;;;;;;;9.90;99.90;;;;;;5041987;28;1872;-76
2023/01/11 14:07:12;;;;;;;;;;;9.90;99.90;;;;;;5044979;28;1080;-75
2023/01/11 14:09:50;;;;;;;;;;;9.80;99.90;;;;;;5048322;28;1524;-76
2023/01/11 14:12:23;;;;;;;;;;;9.80;99.90;;;;;;5041897;28;1049;-75
2023/01/11 14:14:58;;;;;;;;;;;9.80;99.90;;;;;;5043451;28;1591;-77
2023/01/11 14:17:35;;;;;;;;;;;9.80;99.90;;;;;;5043093;28;1706;-75
2023/01/11 14:20:07;;;;;;;;;;;9.70;99.90;;;;;;5040168;28;1079;-76
2023/01/11 14:22:41;;;;;;;;;;;9.70;99.90;;;;;;5042183;28;1964;-75
2023/01/11 14:25:13;;;;;;;;;;;9.60;99.90;;;;;;5041236;28;1280;-76
2023/01/11 14:27:47;;;;;;;;;;;9.50;99.90;;;;;;5040066;28;1689;-76
2023/01/11 14:30:29;;;;;;;;;;;9.40;99.90;;;;;;5042418;28;1174;-75
2023/01/11 14:33:14;;;;;;;;;;;9.50;99.90;;;;;;5035916;28;1295;-75
2023/01/11 14:35:49;;;;;;;;;;;9.50;99.90;;;;;;5038997;28;1608;-75
2023/01/11 14:38:26;;;;;;;;;;;9.40;99.90;;;;;;5043045;28;1113;-75
2023/01/11 14:41:00;;;;;;;;;;;9.40;99.90;;;;;;5042164;28;1025;-76
2023/01/11 14:43:37;;;;;;;;;;;9.40;99.90;;;;;;5042127;28;1913;-75
2023/01/11 14:46:14;;;;;;;;;;;9.30;99.90;;;;;;5041303;28;1718;-76
2023/01/11 14:48:47;;;;;;;;;;;9.30;99.90;;;;;;5048792;28;1109;-75
2023/01/11 14:51:23;;;;;;;;;;;9.20;99.90;;;;;;5046320;28;1041;-77
2023/01/11 14:54:02;;;;;;;;;;;9.20;99.90;;;;;;5046233;28;1532;-76
2023/01/11 14:56:34;;;;;;;;;;;9.10;99.90;;;;;;5046087;28;1748;-76
2023/01/11 14:59:03;;;;;;;;;;;9.10;99.90;;;;;;5044147;28;1723;-75
2023/01/11 15:01:52;;;;;;;;;;;9.20;99.90;;;;;;5046904;28;1061;-76
2023/01/11 15:04:21;;;;;;;;;;;9.20;99.90;;;;;;5046412;28;1362;-75
2023/01/11 15:06:53;;;;;;;;;;;9.10;99.90;;;;;;5043176;28;1020;-75
2023/01/11 15:09:39;;;;;;;;;;;9.10;99.90;;;;;;5044609;28;1279;-75
2023/01/11 15:12:11;;;;;;;;;;;9.10;99.90;;;;;;5048538;28;1040;-76
2023/01/11 15:14:39;;;;;;;;;;;8.90;99.90;;;;;;5047701;28;1379;-75
2023/01/11 15:20:05;;;;;;;;;;;8.90;99.90;;;;;;5048881;28;1570;-75
2023/01/11 15:22:34;;;;;;;;;;;8.90;99.90;;;;;;5048731;28;1966;-76
2023/01/11 15:25:02;;;;;;;;;;;8.90;99.90;;;;;;5044419;28;1442;-75